createdAt,value
2018-12-20T00:00:15.168Z,14.13
2018-12-20T00:02:50.272Z,14.53
2018-12-20T00:05:26.595Z,15.30
2018-12-20T00:08:02.847Z,14.27
2018-12-20T00:10:37.025Z,13.93
2018-12-20T00:13:09.704Z,14.47
2018-12-20T00:15:44.899Z,18.60
2018-12-20T00:18:15.574Z,14.07
2018-12-20T00:20:45.690Z,13.90
2018-12-20T00:23:20.831Z,15.23
2018-12-20T00:25:54.169Z,16.20
2018-12-20T00:28:26.632Z,15.03
2018-12-20T00:30:58.342Z,16.57
2018-12-20T00:33:31.705Z,17.90
2018-12-20T00:36:05.886Z,15.33
2018-12-20T00:38:38.805Z,15.40
2018-12-20T00:41:13.469Z,20.03
2018-12-20T00:43:45.473Z,15.73
2018-12-20T00:46:17.557Z,18.17
2018-12-20T00:48:47.467Z,18.33
2018-12-20T00:51:19.809Z,18.70
2018-12-20T00:53:50.837Z,18.70
2018-12-20T00:56:22.500Z,17.87
2018-12-20T00:58:52.846Z,18.50
2018-12-20T01:01:24.731Z,19.67
2018-12-20T01:03:56.235Z,19.77
2018-12-20T01:06:27.082Z,19.30
2018-12-20T01:08:58.558Z,20.80
2018-12-20T01:11:35.040Z,20.87
2018-12-20T01:14:04.911Z,17.77
2018-12-20T01:16:34.565Z,20.43
2018-12-20T01:19:05.241Z,18.40
2018-12-20T01:21:35.107Z,17.83
2018-12-20T01:24:05.622Z,19.50
2018-12-20T01:26:37.281Z,21.30
2018-12-20T01:29:07.128Z,20.53
2018-12-20T01:31:37.847Z,19.63
2018-12-20T01:34:09.356Z,19.90
2018-12-20T01:36:40.225Z,19.67
2018-12-20T01:39:11.410Z,22.03
2018-12-20T01:41:43.968Z,21.23
2018-12-20T01:44:14.734Z,20.10
2018-12-20T01:46:47.895Z,21.13
2018-12-20T01:49:23.811Z,19.70
2018-12-20T01:51:54.852Z,18.10
2018-12-20T01:54:26.741Z,17.10
2018-12-20T01:56:58.619Z,18.80
2018-12-20T01:59:30.101Z,17.17
2018-12-20T02:02:01.676Z,18.47
2018-12-20T02:04:31.878Z,17.87
2018-12-20T02:07:04.484Z,19.70
2018-12-20T02:09:37.524Z,18.33
2018-12-20T02:12:11.717Z,16.33
2018-12-20T02:14:43.356Z,18.73
2018-12-20T02:17:13.742Z,18.43
2018-12-20T02:19:45.758Z,17.43
2018-12-20T02:22:16.973Z,17.77
2018-12-20T02:24:50.187Z,18.03
2018-12-20T02:27:20.751Z,17.67
2018-12-20T02:29:52.179Z,18.37
2018-12-20T02:32:23.097Z,19.57
2018-12-20T02:34:55.701Z,19.10
2018-12-20T02:37:28.640Z,19.03
2018-12-20T02:40:00.539Z,18.80
2018-12-20T02:42:30.973Z,20.23
2018-12-20T02:45:10.731Z,20.27
2018-12-20T02:47:36.898Z,20.63
2018-12-20T02:50:07.668Z,21.83
2018-12-20T02:52:39.000Z,24.97
2018-12-20T02:55:09.542Z,21.93
2018-12-20T02:57:42.209Z,25.47
2018-12-20T03:00:14.031Z,22.77
2018-12-20T03:02:45.612Z,22.60
2018-12-20T03:05:17.630Z,24.30
2018-12-20T03:07:49.666Z,22.87
2018-12-20T03:10:21.241Z,26.67
2018-12-20T03:12:51.973Z,23.17
2018-12-20T03:15:23.133Z,27.20
2018-12-20T03:17:52.895Z,26.37
2018-12-20T03:20:23.210Z,25.73
2018-12-20T03:22:53.234Z,23.77
2018-12-20T03:25:23.905Z,24.20
2018-12-20T03:27:54.769Z,26.77
2018-12-20T03:30:25.391Z,26.62
2018-12-20T03:32:56.297Z,24.50
2018-12-20T03:35:28.282Z,24.27
2018-12-20T03:37:59.756Z,24.27
2018-12-20T03:40:32.162Z,25.23
2018-12-20T03:43:03.295Z,24.53
2018-12-20T03:45:34.641Z,25.17
2018-12-20T03:48:05.789Z,24.17
2018-12-20T03:50:40.075Z,22.37
2018-12-20T03:53:11.325Z,23.70
2018-12-20T03:55:42.032Z,26.43
2018-12-20T03:58:12.341Z,24.20
2018-12-20T04:00:42.547Z,23.67
2018-12-20T04:03:12.561Z,21.80
2018-12-20T04:05:42.622Z,23.37
2018-12-20T04:08:13.343Z,25.93
2018-12-20T04:10:43.440Z,22.37
2018-12-20T04:13:13.915Z,24.53
2018-12-20T04:15:44.062Z,24.10
2018-12-20T04:18:14.337Z,23.53
2018-12-20T04:20:45.163Z,22.47
2018-12-20T04:23:15.857Z,23.77
2018-12-20T04:25:47.670Z,22.17
2018-12-20T04:28:17.878Z,21.13
2018-12-20T04:30:48.324Z,23.13
2018-12-20T04:33:18.548Z,24.23
2018-12-20T04:35:50.126Z,21.23
2018-12-20T04:38:25.849Z,22.10
2018-12-20T04:40:57.141Z,21.43
2018-12-20T04:43:29.753Z,22.50
2018-12-20T04:46:01.045Z,22.97
2018-12-20T04:48:31.707Z,21.50
2018-12-20T04:51:04.272Z,19.70
2018-12-20T04:53:35.239Z,19.40
2018-12-20T04:56:05.222Z,21.37
2018-12-20T04:58:35.072Z,21.23
2018-12-20T05:01:06.191Z,20.57
2018-12-20T05:03:37.369Z,20.60
2018-12-20T05:06:08.349Z,19.13
2018-12-20T05:08:39.820Z,19.17
2018-12-20T05:11:10.286Z,20.17
2018-12-20T05:13:40.200Z,15.80
2018-12-20T05:16:10.324Z,16.90
2018-12-20T05:18:40.645Z,14.87
2018-12-20T05:21:12.503Z,14.73
2018-12-20T05:23:42.936Z,14.77
2018-12-20T05:26:13.584Z,14.30
2018-12-20T05:28:45.974Z,13.47
2018-12-20T05:31:18.129Z,13.77
2018-12-20T05:33:52.164Z,13.10
2018-12-20T05:36:24.290Z,13.53
2018-12-20T05:38:54.628Z,13.80
2018-12-20T05:41:24.246Z,14.87
2018-12-20T05:43:54.500Z,13.30
2018-12-20T05:46:25.020Z,12.60
2018-12-20T05:48:55.347Z,13.10
2018-12-20T05:51:26.293Z,13.30
2018-12-20T05:53:56.217Z,11.97
2018-12-20T05:56:26.970Z,13.57
2018-12-20T05:58:56.969Z,12.40
2018-12-20T06:01:27.220Z,13.33
2018-12-20T06:04:01.749Z,11.83
2018-12-20T06:06:32.117Z,12.50
2018-12-20T06:09:05.186Z,12.63
2018-12-20T06:11:35.973Z,11.93
2018-12-20T06:14:06.024Z,11.93
2018-12-20T06:16:35.964Z,10.57
2018-12-20T06:19:05.986Z,11.37
2018-12-20T06:21:36.979Z,12.10
2018-12-20T06:24:08.443Z,11.57
2018-12-20T06:26:38.798Z,11.00
2018-12-20T06:29:09.232Z,10.90
2018-12-20T06:31:40.484Z,10.60
2018-12-20T06:34:10.274Z,10.00
2018-12-20T06:36:40.181Z,11.07
2018-12-20T06:39:10.110Z,9.97
2018-12-20T06:41:46.304Z,9.83
2018-12-20T06:44:16.918Z,8.87
2018-12-20T06:46:51.245Z,10.17
2018-12-20T06:49:21.176Z,9.33
2018-12-20T06:51:51.326Z,9.73
2018-12-20T06:54:21.332Z,9.17
2018-12-20T06:56:51.600Z,9.60
2018-12-20T06:59:21.738Z,9.83
2018-12-20T07:01:52.672Z,10.43
2018-12-20T07:04:23.340Z,10.07
2018-12-20T07:06:53.376Z,8.63
2018-12-20T07:09:24.692Z,9.47
2018-12-20T07:11:54.860Z,8.63
2018-12-20T07:14:26.412Z,9.00
2018-12-20T07:16:59.479Z,9.20
2018-12-20T07:19:33.002Z,9.77
2018-12-20T07:22:03.128Z,9.33
2018-12-20T07:24:33.987Z,9.43
2018-12-20T07:27:04.678Z,11.13
2018-12-20T07:29:34.570Z,9.67
2018-12-20T07:32:05.291Z,9.83
2018-12-20T07:34:35.265Z,10.07
2018-12-20T07:37:05.147Z,9.60
2018-12-20T07:39:37.085Z,9.37
2018-12-20T07:42:06.986Z,9.23
2018-12-20T07:44:37.665Z,10.73
2018-12-20T07:47:07.738Z,9.30
2018-12-20T07:49:38.506Z,9.30
2018-12-20T07:52:08.565Z,10.33
2018-12-20T07:57:16.956Z,9.43
2018-12-20T07:59:46.868Z,8.80
2018-12-20T08:02:16.874Z,9.03
2018-12-20T08:04:46.617Z,9.07
2018-12-20T08:07:16.562Z,8.60
2018-12-20T08:09:46.427Z,8.80
2018-12-20T08:12:15.897Z,8.77
2018-12-20T08:14:45.728Z,9.20
2018-12-20T08:17:15.766Z,9.93
2018-12-20T08:19:45.620Z,9.77
2018-12-20T08:22:15.574Z,9.80
2018-12-20T08:24:45.634Z,9.87
2018-12-20T08:27:15.975Z,9.80
2018-12-20T08:29:47.327Z,9.77
2018-12-20T08:32:17.114Z,10.30
2018-12-20T08:34:46.788Z,10.93
2018-12-20T08:37:16.555Z,10.00
2018-12-20T08:39:46.389Z,10.53
2018-12-20T08:42:16.222Z,11.07
2018-12-20T08:44:46.037Z,9.30
2018-12-20T08:47:16.593Z,10.33
2018-12-20T08:49:46.684Z,9.13
2018-12-20T08:52:16.687Z,10.30
2018-12-20T08:54:48.613Z,10.13
2018-12-20T08:57:18.560Z,9.47
2018-12-20T08:59:48.431Z,9.27
2018-12-20T09:02:18.389Z,10.30
2018-12-20T09:04:48.046Z,7.53
2018-12-20T09:07:18.207Z,7.80
2018-12-20T09:09:47.828Z,7.90
2018-12-20T09:12:17.694Z,8.93
2018-12-20T09:14:47.989Z,7.50
2018-12-20T09:17:17.735Z,8.53
2018-12-20T09:19:54.011Z,8.40
2018-12-20T09:22:23.627Z,7.67
2018-12-20T09:24:53.461Z,7.73
2018-12-20T09:27:23.248Z,7.73
2018-12-20T09:29:53.758Z,8.17
2018-12-20T09:32:23.567Z,7.60
2018-12-20T09:34:53.262Z,7.53
2018-12-20T09:37:23.138Z,7.87
2018-12-20T09:39:52.889Z,6.97
2018-12-20T09:42:22.690Z,7.17
2018-12-20T09:44:52.313Z,7.73
2018-12-20T09:47:27.379Z,7.37
2018-12-20T09:49:56.974Z,8.20
2018-12-20T09:52:27.828Z,8.73
2018-12-20T09:54:57.806Z,9.43
2018-12-20T09:57:27.612Z,8.40
2018-12-20T09:59:57.225Z,10.90
2018-12-20T10:02:27.128Z,10.77
2018-12-20T10:04:57.775Z,9.77
2018-12-20T10:07:28.473Z,12.53
2018-12-20T10:09:58.202Z,10.87
2018-12-20T10:12:28.084Z,11.33
2018-12-20T10:14:57.711Z,9.80
2018-12-20T10:17:28.222Z,8.63
2018-12-20T10:19:57.986Z,8.63
2018-12-20T10:22:27.873Z,9.23
2018-12-20T10:24:57.563Z,10.53
2018-12-20T10:27:31.381Z,8.10
2018-12-20T10:29:59.367Z,8.23
2018-12-20T10:32:29.208Z,8.20
2018-12-20T10:35:00.615Z,8.03
2018-12-20T10:37:30.527Z,6.93
2018-12-20T10:40:00.426Z,8.10
2018-12-20T10:42:30.869Z,8.60
2018-12-20T10:45:00.618Z,7.97
2018-12-20T10:47:30.301Z,11.27
2018-12-20T10:50:00.218Z,8.47
2018-12-20T10:52:30.024Z,11.03
2018-12-20T10:54:59.623Z,11.70
2018-12-20T10:57:29.616Z,9.60
2018-12-20T10:59:59.822Z,13.73
2018-12-20T11:02:34.620Z,13.23
2018-12-20T11:05:08.609Z,9.67
2018-12-20T11:07:43.763Z,8.47
2018-12-20T11:10:18.763Z,9.13
2018-12-20T11:12:49.243Z,8.40
2018-12-20T11:15:19.067Z,9.57
2018-12-20T11:17:51.811Z,9.13
2018-12-20T11:20:21.658Z,9.20
2018-12-20T11:22:51.727Z,7.60
2018-12-20T11:25:22.457Z,7.17
2018-12-20T11:27:53.394Z,8.57
2018-12-20T11:30:24.436Z,8.30
2018-12-20T11:32:54.677Z,8.53
2018-12-20T11:35:24.310Z,8.37
2018-12-20T11:37:54.205Z,8.00
2018-12-20T11:40:24.787Z,7.33
2018-12-20T11:42:54.509Z,7.07
2018-12-20T11:45:25.160Z,7.37
2018-12-20T11:47:57.368Z,7.13
2018-12-20T11:50:29.367Z,8.37
2018-12-20T11:52:59.159Z,7.70
2018-12-20T11:55:29.903Z,7.73
2018-12-20T11:58:01.108Z,7.20
2018-12-20T12:00:33.207Z,6.60
2018-12-20T12:03:04.249Z,6.50
2018-12-20T12:08:13.930Z,6.90
2018-12-20T12:10:44.093Z,6.23
2018-12-20T12:13:18.650Z,6.07
2018-12-20T12:15:48.458Z,5.90
2018-12-20T12:18:21.288Z,7.10
2018-12-20T12:20:51.468Z,5.90
2018-12-20T12:23:23.146Z,5.40
2018-12-20T12:25:53.067Z,5.08
2018-12-20T12:28:22.984Z,5.17
2018-12-20T12:30:53.139Z,5.17
2018-12-20T12:33:22.883Z,4.23
2018-12-20T12:35:52.889Z,5.17
2018-12-20T12:38:23.028Z,4.00
2018-12-20T12:40:52.567Z,3.83
2018-12-20T12:43:22.615Z,4.10
2018-12-20T12:45:53.805Z,3.90
2018-12-20T12:48:24.314Z,3.27
2018-12-20T12:50:54.154Z,3.90
2018-12-20T12:53:24.234Z,3.87
2018-12-20T12:55:54.325Z,3.50
2018-12-20T12:58:25.263Z,3.80
2018-12-20T13:00:54.920Z,5.83
2018-12-20T13:03:24.687Z,3.53
2018-12-20T13:05:55.777Z,3.80
2018-12-20T13:08:25.730Z,4.30
2018-12-20T13:10:55.698Z,4.67
2018-12-20T13:13:25.650Z,4.10
2018-12-20T13:15:56.610Z,3.58
2018-12-20T13:18:27.947Z,3.73
2018-12-20T13:20:57.951Z,3.70
2018-12-20T13:23:27.651Z,3.70
2018-12-20T13:25:58.093Z,4.10
2018-12-20T13:28:28.121Z,4.00
2018-12-20T13:30:58.184Z,3.43
2018-12-20T13:33:30.030Z,3.50
2018-12-20T13:35:59.887Z,3.53
2018-12-20T13:38:29.413Z,3.37
2018-12-20T13:40:58.883Z,3.47
2018-12-20T13:43:28.767Z,4.17
2018-12-20T13:45:59.445Z,3.17
2018-12-20T13:48:30.064Z,2.85
2018-12-20T13:50:59.947Z,3.27
2018-12-20T13:53:30.955Z,3.40
2018-12-20T13:56:01.156Z,3.12
2018-12-20T13:58:30.680Z,2.77
2018-12-20T14:01:00.598Z,3.17
2018-12-20T14:03:31.289Z,3.08
2018-12-20T14:06:01.082Z,3.27
2018-12-20T14:08:30.837Z,2.87
2018-12-20T14:11:00.429Z,2.93
2018-12-20T14:13:31.084Z,4.37
2018-12-20T14:16:01.845Z,3.57
2018-12-20T14:18:32.150Z,3.62
2018-12-20T14:21:01.869Z,2.80
2018-12-20T14:23:31.426Z,2.43
2018-12-20T14:26:01.465Z,3.03
2018-12-20T14:28:31.091Z,3.10
2018-12-20T14:31:00.902Z,2.70
2018-12-20T14:33:32.748Z,2.60
2018-12-20T14:36:02.883Z,3.30
2018-12-20T14:38:32.771Z,2.70
2018-12-20T14:41:03.173Z,2.40
2018-12-20T14:43:32.910Z,2.80
2018-12-20T14:46:02.941Z,2.95
2018-12-20T14:48:39.171Z,2.87
2018-12-20T14:51:05.114Z,2.70
2018-12-20T14:53:35.053Z,2.50
2018-12-20T14:56:05.613Z,3.13
2018-12-20T14:58:39.639Z,2.90
2018-12-20T15:01:15.658Z,2.72
2018-12-20T15:03:47.919Z,4.07
2018-12-20T15:06:21.013Z,2.80
2018-12-20T15:08:54.127Z,2.27
2018-12-20T15:11:29.994Z,2.47
2018-12-20T15:14:01.139Z,2.10
2018-12-20T15:16:31.955Z,2.17
2018-12-20T15:19:02.740Z,2.40
2018-12-20T15:21:33.000Z,2.50
2018-12-20T15:24:03.583Z,2.13
2018-12-20T15:26:33.365Z,2.30
2018-12-20T15:29:04.581Z,2.43
2018-12-20T15:31:35.807Z,2.58
2018-12-20T15:34:05.625Z,2.25
2018-12-20T15:36:35.854Z,2.13
2018-12-20T15:39:08.102Z,2.30
2018-12-20T15:41:42.980Z,2.60
2018-12-20T15:44:13.671Z,2.43
2018-12-20T15:46:45.844Z,2.65
2018-12-20T15:49:18.090Z,2.03
2018-12-20T15:51:50.792Z,2.57
2018-12-20T15:54:23.830Z,2.60
2018-12-20T15:56:55.215Z,3.30
2018-12-20T15:59:27.749Z,3.12
2018-12-20T16:01:58.964Z,4.17
2018-12-20T16:04:30.488Z,3.10
2018-12-20T16:07:03.954Z,3.98
2018-12-20T16:09:34.955Z,3.17
2018-12-20T16:12:06.813Z,2.90
2018-12-20T16:14:39.062Z,3.07
2018-12-20T16:17:13.998Z,2.93
2018-12-20T16:19:45.929Z,3.67
2018-12-20T16:22:20.345Z,3.40
2018-12-20T16:24:52.479Z,3.17
2018-12-20T16:27:26.898Z,2.70
2018-12-20T16:30:00.486Z,3.00
2018-12-20T16:32:33.556Z,4.28
2018-12-20T16:35:04.910Z,2.57
2018-12-20T16:37:37.963Z,3.40
2018-12-20T16:40:13.592Z,3.80
2018-12-20T16:42:48.116Z,3.70
2018-12-20T16:45:20.611Z,3.10
2018-12-20T16:47:52.703Z,2.60
2018-12-20T16:50:24.671Z,3.40
2018-12-20T16:52:56.012Z,3.63
2018-12-20T16:55:28.523Z,3.08
2018-12-20T16:58:01.486Z,3.53
2018-12-20T17:00:33.119Z,2.65
2018-12-20T17:03:06.340Z,2.57
2018-12-20T17:05:37.933Z,3.27
2018-12-20T17:08:09.149Z,3.40
2018-12-20T17:10:39.617Z,2.73
2018-12-20T17:13:09.799Z,2.90
2018-12-20T17:15:39.653Z,2.83
2018-12-20T17:18:09.708Z,3.17
2018-12-20T17:20:40.017Z,2.70
2018-12-20T17:23:10.621Z,4.03
2018-12-20T17:25:41.286Z,2.08
2018-12-20T17:28:16.505Z,2.13
2018-12-20T17:30:48.860Z,3.37
2018-12-20T17:33:19.156Z,3.02
2018-12-20T17:35:49.949Z,2.10
2018-12-20T17:38:22.102Z,4.40
2018-12-20T17:40:55.082Z,2.00
2018-12-20T17:43:27.605Z,2.30
2018-12-20T17:45:58.593Z,3.00
2018-12-20T17:48:31.324Z,2.17
2018-12-20T17:51:03.490Z,5.73
2018-12-20T17:53:33.012Z,3.20
2018-12-20T17:56:02.888Z,3.43
2018-12-20T17:58:32.557Z,3.57
2018-12-20T18:01:02.367Z,3.70
2018-12-20T18:03:32.730Z,2.33
2018-12-20T18:06:02.326Z,3.95
2018-12-20T18:08:31.991Z,2.50
2018-12-20T18:11:01.778Z,2.40
2018-12-20T18:13:31.276Z,3.20
2018-12-20T18:16:01.666Z,2.33
2018-12-20T18:18:31.147Z,2.53
2018-12-20T18:21:00.880Z,3.70
2018-12-20T18:23:30.421Z,2.37
2018-12-20T18:25:59.851Z,2.73
2018-12-20T18:28:29.302Z,2.60
2018-12-20T18:30:59.304Z,2.83
2018-12-20T18:33:28.771Z,3.05
2018-12-20T18:35:58.202Z,3.10
2018-12-20T18:38:27.672Z,3.43
2018-12-20T18:40:57.186Z,3.23
2018-12-20T18:43:27.611Z,4.93
2018-12-20T18:45:57.117Z,3.30
2018-12-20T18:48:26.628Z,2.73
2018-12-20T18:50:57.161Z,3.05
2018-12-20T18:53:27.007Z,3.33
2018-12-20T18:55:56.707Z,3.30
2018-12-20T18:58:26.280Z,3.20
2018-12-20T19:00:55.835Z,3.57
2018-12-20T19:03:25.340Z,3.13
2018-12-20T19:05:55.035Z,4.10
2018-12-20T19:08:24.563Z,3.30
2018-12-20T19:10:54.304Z,2.90
2018-12-20T19:13:23.998Z,3.03
2018-12-20T19:15:53.496Z,3.00
2018-12-20T19:18:23.122Z,2.97
2018-12-20T19:20:52.744Z,3.20
2018-12-20T19:23:22.226Z,3.27
2018-12-20T19:25:52.856Z,2.92
2018-12-20T19:28:22.416Z,3.10
2018-12-20T19:30:52.035Z,3.03
2018-12-20T19:33:21.564Z,2.40
2018-12-20T19:35:51.168Z,2.90
2018-12-20T19:38:20.868Z,2.50
2018-12-20T19:40:52.438Z,2.80
2018-12-20T19:43:23.742Z,3.40
2018-12-20T19:45:53.476Z,2.43
2018-12-20T19:48:23.215Z,2.13
2018-12-20T19:50:53.268Z,2.37
2018-12-20T19:53:23.417Z,2.17
2018-12-20T19:55:54.119Z,2.50
2018-12-20T19:58:25.255Z,2.87
2018-12-20T20:00:55.595Z,2.40
2018-12-20T20:03:27.111Z,2.47
2018-12-20T20:05:58.068Z,1.77
2018-12-20T20:08:27.895Z,1.97
2018-12-20T20:10:58.420Z,1.50
2018-12-20T20:13:30.885Z,1.70
2018-12-20T20:16:00.665Z,1.40
2018-12-20T20:18:30.499Z,1.75
2018-12-20T20:21:01.969Z,1.77
2018-12-20T20:23:31.884Z,1.47
2018-12-20T20:26:02.227Z,1.30
2018-12-20T20:28:34.015Z,1.40
2018-12-20T20:31:07.134Z,1.70
2018-12-20T20:33:40.058Z,1.22
2018-12-20T20:36:13.707Z,1.90
2018-12-20T20:38:48.245Z,1.40
2018-12-20T20:41:20.390Z,1.30
2018-12-20T20:43:55.522Z,1.47
2018-12-20T20:46:30.085Z,1.37
2018-12-20T20:49:04.115Z,1.47
2018-12-20T20:51:35.016Z,1.30
2018-12-20T20:54:06.740Z,1.40
2018-12-20T20:56:37.477Z,1.20
2018-12-20T20:59:08.044Z,1.50
2018-12-20T21:01:38.551Z,1.60
2018-12-20T21:04:09.448Z,1.30
2018-12-20T21:06:46.984Z,1.02
2018-12-20T21:09:13.433Z,2.03
2018-12-20T21:11:45.031Z,1.53
2018-12-20T21:14:16.256Z,2.90
2018-12-20T21:16:50.223Z,1.30
2018-12-20T21:19:23.385Z,1.72
2018-12-20T21:21:54.154Z,1.93
2018-12-20T21:24:28.188Z,1.87
2018-12-20T21:27:00.872Z,1.37
2018-12-20T21:29:35.048Z,1.45
2018-12-20T21:32:07.174Z,1.10
2018-12-20T21:34:39.838Z,1.60
2018-12-20T21:37:10.268Z,1.77
2018-12-20T21:39:42.754Z,1.73
2018-12-20T21:42:13.060Z,1.60
2018-12-20T21:44:45.798Z,2.10
2018-12-20T21:47:16.478Z,1.87
2018-12-20T21:49:47.211Z,2.07
2018-12-20T21:52:18.647Z,2.13
2018-12-20T21:54:50.073Z,1.63
2018-12-20T21:57:21.766Z,2.20
2018-12-20T22:00:01.042Z,2.35
2018-12-20T22:02:26.795Z,2.00
2018-12-20T22:04:57.678Z,1.73
2018-12-20T22:07:29.145Z,1.73
2018-12-20T22:10:00.900Z,3.17
2018-12-20T22:12:31.448Z,2.20
2018-12-20T22:15:04.563Z,2.33
2018-12-20T22:17:36.794Z,1.98
2018-12-20T22:20:08.742Z,1.63
2018-12-20T22:22:42.371Z,2.50
2018-12-20T22:25:13.205Z,2.27
2018-12-20T22:27:46.758Z,2.23
2018-12-20T22:30:20.489Z,1.30
2018-12-20T22:32:51.866Z,2.07
2018-12-20T22:35:22.712Z,3.63
2018-12-20T22:37:53.979Z,2.03
2018-12-20T22:40:26.790Z,3.37
2018-12-20T22:42:59.344Z,1.90
2018-12-20T22:45:31.787Z,2.00
2018-12-20T22:48:01.924Z,1.60
2018-12-20T22:50:33.046Z,3.73
2018-12-20T22:53:03.918Z,2.75
2018-12-20T22:55:34.510Z,1.73
2018-12-20T22:58:05.492Z,2.00
2018-12-20T23:00:38.588Z,1.90
2018-12-20T23:03:09.985Z,1.87
2018-12-20T23:05:42.082Z,2.70
2018-12-20T23:08:13.743Z,4.00
2018-12-20T23:10:46.446Z,1.83
2018-12-20T23:13:18.182Z,2.05
2018-12-20T23:15:48.992Z,2.25
2018-12-20T23:18:20.910Z,1.70
2018-12-20T23:20:52.001Z,1.87
2018-12-20T23:23:23.230Z,1.50
2018-12-20T23:25:53.681Z,1.50
2018-12-20T23:28:25.029Z,2.80
2018-12-20T23:30:55.876Z,1.53
2018-12-20T23:33:26.799Z,1.33
2018-12-20T23:35:59.061Z,2.03
2018-12-20T23:38:31.672Z,1.70
2018-12-20T23:41:03.539Z,1.60
2018-12-20T23:43:34.046Z,1.70
2018-12-20T23:46:05.940Z,2.30
2018-12-20T23:48:39.222Z,1.70
2018-12-20T23:51:13.773Z,3.37
2018-12-20T23:53:47.291Z,2.90
2018-12-20T23:56:20.151Z,1.60
2018-12-20T23:58:52.271Z,1.37
